createdAt,value
2019-01-04T00:01:36.181Z,26.27
2019-01-04T00:04:06.506Z,28.10
2019-01-04T00:06:35.091Z,24.13
2019-01-04T00:09:05.744Z,25.87
2019-01-04T00:11:34.758Z,30.53
2019-01-04T00:14:03.451Z,28.77
2019-01-04T00:16:32.012Z,26.47
2019-01-04T00:19:00.612Z,30.83
2019-01-04T00:21:29.361Z,29.73
2019-01-04T00:23:58.042Z,31.40
2019-01-04T00:26:26.659Z,27.27
2019-01-04T00:28:55.211Z,28.77
2019-01-04T00:31:23.944Z,27.97
2019-01-04T00:33:52.529Z,28.10
2019-01-04T00:36:21.173Z,28.90
2019-01-04T00:38:49.828Z,30.60
2019-01-04T00:41:18.437Z,30.27
2019-01-04T00:43:47.083Z,30.63
2019-01-04T00:46:15.644Z,32.23
2019-01-04T00:48:44.602Z,31.20
2019-01-04T00:51:13.394Z,30.53
2019-01-04T00:53:42.152Z,28.57
2019-01-04T00:56:19.753Z,34.83
2019-01-04T00:59:03.208Z,31.90
2019-01-04T01:01:49.653Z,32.53
2019-01-04T01:04:53.391Z,34.13
2019-01-04T01:07:43.071Z,30.53
2019-01-04T01:10:35.585Z,31.43
2019-01-04T01:13:40.279Z,32.77
2019-01-04T01:16:32.722Z,32.60
2019-01-04T01:19:23.954Z,31.10
2019-01-04T01:22:24.951Z,30.23
2019-01-04T01:25:29.887Z,25.40
2019-01-04T01:28:04.205Z,25.80
2019-01-04T01:30:50.901Z,30.87
2019-01-04T01:33:42.095Z,27.43
2019-01-04T01:36:34.814Z,29.07
2019-01-04T01:39:34.938Z,31.67
2019-01-04T01:42:24.648Z,29.20
2019-01-04T01:45:17.407Z,27.53
2019-01-04T01:47:46.085Z,29.47
2019-01-04T01:50:38.977Z,28.60
2019-01-04T01:53:09.009Z,28.10
2019-01-04T01:55:38.125Z,22.73
2019-01-04T01:58:06.740Z,27.80
2019-01-04T02:00:35.970Z,26.50
2019-01-04T02:03:04.695Z,28.87
2019-01-04T02:05:33.282Z,28.40
2019-01-04T02:08:01.846Z,29.40
2019-01-04T02:10:30.430Z,35.53
2019-01-04T02:12:59.026Z,29.50
2019-01-04T02:15:27.618Z,30.07
2019-01-04T02:17:56.191Z,29.93
2019-01-04T02:20:24.838Z,27.10
2019-01-04T02:22:53.405Z,35.43
2019-01-04T02:25:22.057Z,24.13
2019-01-04T02:27:50.629Z,26.20
2019-01-04T02:30:19.222Z,29.53
2019-01-04T02:32:49.441Z,30.60
2019-01-04T02:35:18.406Z,27.70
2019-01-04T02:37:47.090Z,28.50
2019-01-04T02:40:15.782Z,29.63
2019-01-04T02:42:44.475Z,33.90
2019-01-04T02:45:13.198Z,33.80
2019-01-04T02:47:42.020Z,30.33
2019-01-04T02:50:10.578Z,29.43
2019-01-04T02:52:39.176Z,30.63
2019-01-04T02:55:07.831Z,30.83
2019-01-04T02:57:36.547Z,26.97
2019-01-04T03:00:08.722Z,30.33
2019-01-04T03:02:37.524Z,27.07
2019-01-04T03:05:06.431Z,28.13
2019-01-04T03:07:35.299Z,28.00
2019-01-04T03:10:04.910Z,24.50
2019-01-04T03:12:33.447Z,27.80
2019-01-04T03:15:02.033Z,28.27
2019-01-04T03:17:30.764Z,24.67
2019-01-04T03:19:59.402Z,26.73
2019-01-04T03:22:28.192Z,25.50
2019-01-04T03:24:56.787Z,25.13
2019-01-04T03:27:25.583Z,24.97
2019-01-04T03:29:54.250Z,26.13
2019-01-04T03:32:22.885Z,28.13
2019-01-04T03:34:51.562Z,29.93
2019-01-04T03:37:21.384Z,23.13
2019-01-04T03:39:50.041Z,25.97
2019-01-04T03:42:18.728Z,24.03
2019-01-04T03:44:47.579Z,31.23
2019-01-04T03:47:16.156Z,24.73
2019-01-04T03:49:44.742Z,27.33
2019-01-04T03:52:13.393Z,25.77
2019-01-04T03:54:42.263Z,28.00
2019-01-04T03:57:10.767Z,28.40
2019-01-04T03:59:39.313Z,27.70
2019-01-04T04:02:07.971Z,24.63
2019-01-04T04:04:36.793Z,26.33
2019-01-04T04:07:05.390Z,28.90
2019-01-04T04:09:34.130Z,26.67
2019-01-04T04:12:04.298Z,27.40
2019-01-04T04:14:32.919Z,29.70
2019-01-04T04:17:01.539Z,32.07
2019-01-04T04:19:30.126Z,27.00
2019-01-04T04:21:58.675Z,25.80
2019-01-04T04:24:27.290Z,27.23
2019-01-04T04:26:55.961Z,33.33
2019-01-04T04:29:24.508Z,29.10
2019-01-04T04:32:12.432Z,27.33
2019-01-04T04:34:41.031Z,25.77
2019-01-04T04:37:09.593Z,25.73
2019-01-04T04:39:39.394Z,26.50
2019-01-04T04:42:08.115Z,29.63
2019-01-04T04:44:36.695Z,35.70
2019-01-04T04:47:05.364Z,27.27
2019-01-04T04:49:33.933Z,25.17
2019-01-04T04:52:02.490Z,24.20
2019-01-04T04:54:31.026Z,24.63
2019-01-04T04:56:59.711Z,25.87
2019-01-04T04:59:28.314Z,31.53
2019-01-04T05:01:56.881Z,27.27
2019-01-04T05:04:25.511Z,22.13
2019-01-04T05:06:54.068Z,28.27
2019-01-04T05:09:22.699Z,29.90
2019-01-04T05:11:51.391Z,28.53
2019-01-04T05:14:20.036Z,26.23
2019-01-04T05:16:48.746Z,28.93
2019-01-04T05:19:17.434Z,25.20
2019-01-04T05:21:46.086Z,28.70
2019-01-04T05:24:14.750Z,29.27
2019-01-04T05:26:43.302Z,33.33
2019-01-04T05:29:11.927Z,29.47
2019-01-04T05:31:40.579Z,26.73
2019-01-04T05:34:09.154Z,27.10
2019-01-04T05:36:37.787Z,26.43
2019-01-04T05:39:07.002Z,27.53
2019-01-04T05:41:35.634Z,27.50
2019-01-04T05:44:04.318Z,28.63
2019-01-04T05:46:32.874Z,30.53
2019-01-04T05:49:01.642Z,29.07
2019-01-04T05:51:30.222Z,27.67
2019-01-04T05:53:58.863Z,31.30
2019-01-04T05:56:27.590Z,25.27
2019-01-04T05:58:56.106Z,25.80
2019-01-04T06:01:24.688Z,26.23
2019-01-04T06:03:53.719Z,20.93
2019-01-04T06:06:22.295Z,26.10
2019-01-04T06:08:50.882Z,28.37
2019-01-04T06:11:19.468Z,29.53
2019-01-04T06:13:48.170Z,28.57
2019-01-04T06:16:16.778Z,23.47
2019-01-04T06:18:45.458Z,27.43
2019-01-04T06:21:14.046Z,24.97
2019-01-04T06:23:42.799Z,25.43
2019-01-04T06:26:11.455Z,22.50
2019-01-04T06:28:40.015Z,27.63
2019-01-04T06:31:08.624Z,24.20
2019-01-04T06:33:37.253Z,29.80
2019-01-04T06:36:05.838Z,23.77
2019-01-04T06:38:34.480Z,28.27
2019-01-04T06:41:03.135Z,23.63
2019-01-04T06:43:31.771Z,21.97
2019-01-04T06:46:00.523Z,26.87
2019-01-04T06:48:29.259Z,23.73
2019-01-04T06:50:57.913Z,21.93
2019-01-04T06:53:26.495Z,22.83
2019-01-04T06:55:55.041Z,21.47
2019-01-04T06:58:23.666Z,24.83
2019-01-04T07:00:52.270Z,26.40
2019-01-04T07:03:20.947Z,25.70
2019-01-04T07:05:49.659Z,23.70
2019-01-04T07:08:18.218Z,24.83
2019-01-04T07:10:46.995Z,25.73
2019-01-04T07:13:15.683Z,23.90
2019-01-04T07:15:46.082Z,24.97
2019-01-04T07:18:14.662Z,23.93
2019-01-04T07:20:48.326Z,32.17
2019-01-04T07:23:13.980Z,22.43
2019-01-04T07:25:42.729Z,22.70
2019-01-04T07:28:11.285Z,28.10
2019-01-04T07:30:40.134Z,29.87
2019-01-04T07:33:08.763Z,27.03
2019-01-04T07:35:37.448Z,28.57
2019-01-04T07:38:06.036Z,32.00
2019-01-04T07:40:34.574Z,28.00
2019-01-04T07:43:03.229Z,27.67
2019-01-04T07:45:32.121Z,27.97
2019-01-04T07:48:00.838Z,29.17
2019-01-04T07:50:29.391Z,30.80
2019-01-04T07:52:58.297Z,26.63
2019-01-04T07:55:26.999Z,29.70
2019-01-04T07:57:55.620Z,30.77
2019-01-04T08:00:24.367Z,29.77
2019-01-04T08:02:53.068Z,29.50
2019-01-04T08:05:21.915Z,27.40
2019-01-04T08:07:50.958Z,31.40
2019-01-04T08:10:19.670Z,30.30
2019-01-04T08:13:07.573Z,31.23
2019-01-04T08:15:36.174Z,29.40
2019-01-04T08:18:05.134Z,30.60
2019-01-04T08:20:33.697Z,28.53
2019-01-04T08:23:02.298Z,25.60
2019-01-04T08:25:30.986Z,31.80
2019-01-04T08:27:59.653Z,29.90
2019-01-04T08:30:30.261Z,25.17
2019-01-04T08:32:58.608Z,29.43
2019-01-04T08:35:27.263Z,24.53
2019-01-04T08:37:55.876Z,23.90
2019-01-04T08:40:24.480Z,29.73
2019-01-04T08:42:53.149Z,28.47
2019-01-04T08:45:21.766Z,24.93
2019-01-04T08:47:50.343Z,27.20
2019-01-04T08:50:18.931Z,23.77
2019-01-04T08:53:06.875Z,29.40
2019-01-04T08:55:35.439Z,25.83
2019-01-04T08:58:04.095Z,26.20
2019-01-04T09:00:32.694Z,28.10
2019-01-04T09:03:01.291Z,27.83
2019-01-04T09:05:29.874Z,26.83
2019-01-04T09:07:58.529Z,28.77
2019-01-04T09:10:27.368Z,31.07
2019-01-04T09:12:56.076Z,32.03
2019-01-04T09:15:25.195Z,31.43
2019-01-04T09:17:53.759Z,31.23
2019-01-04T09:20:22.418Z,31.70
2019-01-04T09:22:50.973Z,29.93
2019-01-04T09:25:19.691Z,27.73
2019-01-04T09:27:48.247Z,31.50
2019-01-04T09:30:16.992Z,28.27
2019-01-04T09:32:45.748Z,31.57
2019-01-04T09:35:14.462Z,29.53
2019-01-04T09:37:43.094Z,32.50
2019-01-04T09:40:11.950Z,30.90
2019-01-04T09:42:40.628Z,29.00
2019-01-04T09:45:10.131Z,31.70
2019-01-04T09:47:38.839Z,32.97
2019-01-04T09:50:08.874Z,33.53
2019-01-04T09:52:37.624Z,29.40
2019-01-04T09:55:07.205Z,33.70
2019-01-04T09:57:35.947Z,29.97
2019-01-04T10:00:06.815Z,30.50
2019-01-04T10:02:35.475Z,31.80
2019-01-04T10:05:04.906Z,33.90
2019-01-04T10:07:33.574Z,33.90
2019-01-04T10:10:02.287Z,31.67
2019-01-04T10:12:30.883Z,32.27
2019-01-04T10:14:59.570Z,33.17
2019-01-04T10:17:28.236Z,34.43
2019-01-04T10:19:56.804Z,31.67
2019-01-04T10:22:25.385Z,32.07
2019-01-04T10:24:54.043Z,28.57
2019-01-04T10:27:22.697Z,35.20
2019-01-04T10:30:12.166Z,29.30
2019-01-04T10:32:40.712Z,28.27
2019-01-04T10:35:10.713Z,34.87
2019-01-04T10:37:39.728Z,29.40
2019-01-04T10:40:11.260Z,30.27
2019-01-04T10:42:39.112Z,31.03
2019-01-04T10:45:07.854Z,26.87
2019-01-04T10:47:36.590Z,36.83
2019-01-04T10:50:06.300Z,31.33
2019-01-04T10:52:34.887Z,24.47
2019-01-04T10:55:03.546Z,27.10
2019-01-04T10:57:32.134Z,29.53
2019-01-04T11:00:00.993Z,30.77
2019-01-04T11:02:29.567Z,31.50
2019-01-04T11:04:58.170Z,22.40
2019-01-04T11:07:26.735Z,26.07
2019-01-04T11:09:55.903Z,27.73
2019-01-04T11:12:27.629Z,30.03
2019-01-04T11:14:57.484Z,26.90
2019-01-04T11:17:25.994Z,28.00
2019-01-04T11:19:54.846Z,27.83
2019-01-04T11:22:52.101Z,26.67
2019-01-04T11:25:57.226Z,25.67
2019-01-04T11:28:30.163Z,29.17
2019-01-04T11:31:18.498Z,33.67
2019-01-04T11:33:50.234Z,23.53
2019-01-04T11:36:27.966Z,25.43
2019-01-04T11:39:02.610Z,25.77
2019-01-04T11:41:52.753Z,29.33
2019-01-04T11:44:45.877Z,24.17
2019-01-04T11:47:20.379Z,27.63
2019-01-04T11:50:12.513Z,27.67
2019-01-04T11:52:44.201Z,29.47
2019-01-04T11:55:13.058Z,27.43
2019-01-04T11:57:41.808Z,27.33
2019-01-04T12:00:12.259Z,27.73
2019-01-04T12:02:43.789Z,24.10
2019-01-04T12:05:15.314Z,26.83
2019-01-04T12:07:43.937Z,28.90
2019-01-04T12:10:12.624Z,25.37
2019-01-04T12:12:41.261Z,22.30
2019-01-04T12:15:10.118Z,25.97
2019-01-04T12:17:38.915Z,26.83
2019-01-04T12:20:09.736Z,24.93
2019-01-04T12:22:41.643Z,20.80
2019-01-04T12:25:10.213Z,21.70
2019-01-04T12:27:40.872Z,19.63
2019-01-04T12:30:10.103Z,25.30
2019-01-04T12:32:38.663Z,20.03
2019-01-04T12:35:07.291Z,19.70
2019-01-04T12:37:36.186Z,22.80
2019-01-04T12:40:06.243Z,23.87
2019-01-04T12:42:34.794Z,22.27
2019-01-04T12:45:03.519Z,21.30
2019-01-04T12:47:33.864Z,20.37
2019-01-04T12:50:02.573Z,18.13
2019-01-04T12:52:51.276Z,18.03
2019-01-04T12:55:21.640Z,17.83
2019-01-04T12:57:50.339Z,22.87
2019-01-04T13:00:19.162Z,19.40
2019-01-04T13:02:47.736Z,19.77
2019-01-04T13:05:16.556Z,21.17
2019-01-04T13:07:45.206Z,22.30
2019-01-04T13:10:13.877Z,20.27
2019-01-04T13:12:42.730Z,19.07
2019-01-04T13:15:11.422Z,20.30
2019-01-04T13:17:40.273Z,22.23
2019-01-04T13:20:08.944Z,24.03
2019-01-04T13:22:37.645Z,26.63
2019-01-04T13:25:09.066Z,23.70
2019-01-04T13:27:37.656Z,19.90
2019-01-04T13:30:06.931Z,20.50
2019-01-04T13:32:35.647Z,22.03
2019-01-04T13:35:05.174Z,24.63
2019-01-04T13:37:33.952Z,22.73
2019-01-04T13:40:02.650Z,22.90
2019-01-04T13:42:31.335Z,21.10
2019-01-04T13:45:00.025Z,19.03
2019-01-04T13:47:32.162Z,22.63
2019-01-04T13:49:59.282Z,21.73
2019-01-04T13:52:27.978Z,25.30
2019-01-04T13:54:57.348Z,20.87
2019-01-04T13:57:26.265Z,20.17
2019-01-04T13:59:57.772Z,21.03
2019-01-04T14:02:26.406Z,24.83
2019-01-04T14:04:54.989Z,24.50
2019-01-04T14:07:23.686Z,24.47
2019-01-04T14:09:52.419Z,23.30
2019-01-04T14:12:21.022Z,21.43
2019-01-04T14:14:49.764Z,21.93
2019-01-04T14:17:18.838Z,23.83
2019-01-04T14:19:47.608Z,19.60
2019-01-04T14:22:16.532Z,23.60
2019-01-04T14:24:45.042Z,19.80
2019-01-04T14:27:13.703Z,27.23
2019-01-04T14:29:42.823Z,23.53
2019-01-04T14:32:11.577Z,21.80
2019-01-04T14:34:40.430Z,25.80
2019-01-04T14:37:09.117Z,27.80
2019-01-04T14:39:37.709Z,21.10
2019-01-04T14:42:06.359Z,18.73
2019-01-04T14:44:35.019Z,21.37
2019-01-04T14:47:04.377Z,21.97
2019-01-04T14:49:33.220Z,22.80
2019-01-04T14:52:02.028Z,17.87
2019-01-04T14:54:30.566Z,18.20
2019-01-04T14:56:59.162Z,20.60
2019-01-04T14:59:27.810Z,20.07
2019-01-04T15:01:56.402Z,19.73
2019-01-04T15:04:25.107Z,18.67
2019-01-04T15:06:54.120Z,19.17
2019-01-04T15:09:24.232Z,23.17
2019-01-04T15:11:52.919Z,17.00
2019-01-04T15:14:21.640Z,14.13
2019-01-04T15:16:50.198Z,16.57
2019-01-04T15:19:19.087Z,21.00
2019-01-04T15:21:47.706Z,19.70
2019-01-04T15:24:16.627Z,16.73
2019-01-04T15:26:45.258Z,19.53
2019-01-04T15:29:13.844Z,17.77
2019-01-04T15:31:42.588Z,18.07
2019-01-04T15:34:11.162Z,20.20
2019-01-04T15:36:39.779Z,17.67
2019-01-04T15:39:08.675Z,20.93
2019-01-04T15:41:37.266Z,19.80
2019-01-04T15:44:05.972Z,21.63
2019-01-04T15:46:35.171Z,21.33
2019-01-04T15:49:03.781Z,19.03
2019-01-04T15:51:32.335Z,19.50
2019-01-04T15:54:00.887Z,17.73
2019-01-04T15:56:29.802Z,16.90
2019-01-04T15:58:58.402Z,20.43
2019-01-04T16:01:27.387Z,18.10
2019-01-04T16:03:55.939Z,21.60
2019-01-04T16:06:24.498Z,17.47
2019-01-04T16:08:53.164Z,20.33
2019-01-04T16:11:21.806Z,15.77
2019-01-04T16:13:50.412Z,18.37
2019-01-04T16:16:19.200Z,15.43
2019-01-04T16:18:47.856Z,21.53
2019-01-04T16:21:28.610Z,17.57
2019-01-04T16:24:00.133Z,20.20
2019-01-04T16:26:28.843Z,21.93
2019-01-04T16:28:57.378Z,23.00
2019-01-04T16:31:26.035Z,19.37
2019-01-04T16:33:56.283Z,23.17
2019-01-04T16:36:24.874Z,19.63
2019-01-04T16:38:53.565Z,21.07
2019-01-04T16:41:22.234Z,22.50
2019-01-04T16:43:50.998Z,27.87
2019-01-04T16:46:19.516Z,19.80
2019-01-04T16:48:48.078Z,19.60
2019-01-04T16:51:17.087Z,22.00
2019-01-04T16:53:45.658Z,22.67
2019-01-04T16:56:14.356Z,22.23
2019-01-04T16:58:42.999Z,21.33
2019-01-04T17:01:12.667Z,20.83
2019-01-04T17:03:41.222Z,23.40
2019-01-04T17:06:09.826Z,21.17
2019-01-04T17:08:39.899Z,24.57
2019-01-04T17:11:08.540Z,20.90
2019-01-04T17:13:37.131Z,26.47
2019-01-04T17:16:05.819Z,26.53
2019-01-04T17:18:34.394Z,25.07
2019-01-04T17:21:03.044Z,16.67
2019-01-04T17:23:31.560Z,17.93
2019-01-04T17:26:00.165Z,31.10
2019-01-04T17:28:28.898Z,22.30
2019-01-04T17:30:59.097Z,22.40
2019-01-04T17:33:27.814Z,18.07
2019-01-04T17:35:56.473Z,22.93
2019-01-04T17:38:25.095Z,15.77
2019-01-04T17:40:53.894Z,18.60
2019-01-04T17:43:22.454Z,17.10
2019-01-04T17:45:51.126Z,19.80
2019-01-04T17:48:19.763Z,16.13
2019-01-04T17:50:48.355Z,17.60
2019-01-04T17:53:17.014Z,18.53
2019-01-04T17:55:45.682Z,16.93
2019-01-04T17:58:14.469Z,21.93
2019-01-04T18:00:43.056Z,17.57
2019-01-04T18:03:11.761Z,15.57
2019-01-04T18:05:40.371Z,19.93
2019-01-04T18:08:08.910Z,19.50
2019-01-04T18:10:37.673Z,18.30
2019-01-04T18:13:06.398Z,16.57
2019-01-04T18:15:35.073Z,17.27
2019-01-04T18:18:03.728Z,17.27
2019-01-04T18:20:32.318Z,15.97
2019-01-04T18:23:01.057Z,18.47
2019-01-04T18:25:29.762Z,15.93
2019-01-04T18:27:58.342Z,17.73
2019-01-04T18:30:27.020Z,19.40
2019-01-04T18:32:56.289Z,19.20
2019-01-04T18:35:26.148Z,15.83
2019-01-04T18:37:54.763Z,18.70
2019-01-04T18:40:23.637Z,20.00
2019-01-04T18:42:52.242Z,16.70
2019-01-04T18:45:20.947Z,19.10
2019-01-04T18:47:49.544Z,21.80
2019-01-04T18:50:19.865Z,16.13
2019-01-04T18:52:48.551Z,16.80
2019-01-04T18:55:17.235Z,21.80
2019-01-04T18:57:45.795Z,21.13
2019-01-04T19:00:14.550Z,22.60
2019-01-04T19:02:43.173Z,21.03
2019-01-04T19:05:11.891Z,21.57
2019-01-04T19:07:40.517Z,23.50
2019-01-04T19:10:10.155Z,21.30
2019-01-04T19:12:38.763Z,17.90
2019-01-04T19:15:09.688Z,24.20
2019-01-04T19:17:39.866Z,21.00
2019-01-04T19:20:14.091Z,18.17
2019-01-04T19:22:42.667Z,20.00
2019-01-04T19:25:11.303Z,21.67
2019-01-04T19:27:39.933Z,19.73
2019-01-04T19:30:09.230Z,19.93
2019-01-04T19:32:38.163Z,21.07
2019-01-04T19:35:06.815Z,22.40
2019-01-04T19:37:35.488Z,25.17
2019-01-04T19:40:04.955Z,23.47
2019-01-04T19:42:33.494Z,21.60
2019-01-04T19:45:03.337Z,25.13
2019-01-04T19:47:31.995Z,18.73
2019-01-04T19:50:03.681Z,19.40
2019-01-04T19:52:32.436Z,19.47
2019-01-04T19:55:01.184Z,21.37
2019-01-04T19:57:30.062Z,19.90
2019-01-04T19:59:58.733Z,23.27
2019-01-04T20:02:27.442Z,23.97
2019-01-04T20:04:55.966Z,20.50
2019-01-04T20:08:02.638Z,20.70
2019-01-04T20:10:46.027Z,20.57
2019-01-04T20:13:58.743Z,21.47
2019-01-04T20:16:53.775Z,24.13
2019-01-04T20:19:40.102Z,27.03
2019-01-04T20:22:22.619Z,20.43
2019-01-04T20:25:04.417Z,22.97
2019-01-04T20:27:46.330Z,22.00
2019-01-04T20:30:31.856Z,18.83
2019-01-04T20:33:18.217Z,24.17
2019-01-04T20:36:04.922Z,18.53
2019-01-04T20:38:35.518Z,21.30
2019-01-04T20:41:22.206Z,20.53
2019-01-04T20:44:00.931Z,21.57
2019-01-04T20:46:47.539Z,24.10
2019-01-04T20:49:30.093Z,21.37
2019-01-04T20:52:02.053Z,24.77
2019-01-04T20:54:32.275Z,22.40
2019-01-04T20:57:11.302Z,20.07
2019-01-04T20:59:59.189Z,24.13
2019-01-04T21:02:29.415Z,20.17
2019-01-04T21:05:14.569Z,25.03
2019-01-04T21:07:44.858Z,27.93
2019-01-04T21:10:31.636Z,26.93
2019-01-04T21:13:07.422Z,23.90
2019-01-04T21:15:40.519Z,23.80
2019-01-04T21:18:19.713Z,24.90
2019-01-04T21:21:08.178Z,21.63
2019-01-04T21:23:40.971Z,20.93
2019-01-04T21:26:13.921Z,22.03
2019-01-04T21:28:49.921Z,21.80
2019-01-04T21:31:25.640Z,20.07
2019-01-04T21:34:04.487Z,21.27
2019-01-04T21:36:40.547Z,23.73
2019-01-04T21:39:23.813Z,22.60
2019-01-04T21:41:54.004Z,20.90
2019-01-04T21:44:33.249Z,20.70
2019-01-04T21:47:12.486Z,19.87
2019-01-04T21:49:42.741Z,20.10
2019-01-04T21:52:18.850Z,17.10
2019-01-04T21:55:04.300Z,22.77
2019-01-04T21:57:37.318Z,18.93
2019-01-04T22:00:11.981Z,20.97
2019-01-04T22:02:51.054Z,20.83
2019-01-04T22:05:24.303Z,19.73
2019-01-04T22:08:10.994Z,25.33
2019-01-04T22:10:44.358Z,20.97
2019-01-04T22:13:51.451Z,22.70
2019-01-04T22:16:21.891Z,23.30
2019-01-04T22:19:03.819Z,21.90
2019-01-04T22:21:50.322Z,21.23
2019-01-04T22:24:20.648Z,19.50
2019-01-04T22:27:07.276Z,24.00
2019-01-04T22:29:43.270Z,22.67
2019-01-04T22:32:25.362Z,21.03
2019-01-04T22:35:01.165Z,23.57
2019-01-04T22:37:46.078Z,20.83
2019-01-04T22:40:28.003Z,22.40
2019-01-04T22:43:14.690Z,20.50
2019-01-04T22:46:01.577Z,23.67
2019-01-04T22:48:31.842Z,23.87
2019-01-04T22:51:13.696Z,27.10
2019-01-04T22:54:00.139Z,23.73
2019-01-04T22:56:36.283Z,25.23
2019-01-04T22:59:18.557Z,25.20
2019-01-04T23:01:57.651Z,27.63
2019-01-04T23:04:46.089Z,26.80
2019-01-04T23:07:31.482Z,29.37
2019-01-04T23:10:01.686Z,26.27
2019-01-04T23:12:31.907Z,26.43
2019-01-04T23:15:02.186Z,26.00
2019-01-04T23:17:38.332Z,26.03
2019-01-04T23:20:11.178Z,25.47
2019-01-04T23:22:43.851Z,22.93
2019-01-04T23:25:29.101Z,25.83
2019-01-04T23:28:15.609Z,21.20
2019-01-04T23:31:00.949Z,22.90
2019-01-04T23:33:47.172Z,22.37
2019-01-04T23:36:20.167Z,21.67
2019-01-04T23:38:50.390Z,22.90
2019-01-04T23:41:38.811Z,23.80
2019-01-04T23:44:25.486Z,21.03
2019-01-04T23:47:10.721Z,20.37
2019-01-04T23:49:41.003Z,23.17
2019-01-04T23:52:23.348Z,22.03
2019-01-04T23:55:02.286Z,23.63
2019-01-04T23:57:38.194Z,20.50
